sensor_id;sensor_type;location;lat;lon;timestamp;temperature;humidity
51007;DHT22;37034;47.886;-3.904;2022-12-29T00:02:11;13.40;98.10
51007;DHT22;37034;47.886;-3.904;2022-12-29T00:04:37;13.50;98.10
51007;DHT22;37034;47.886;-3.904;2022-12-29T00:07:03;13.50;97.80
51007;DHT22;37034;47.886;-3.904;2022-12-29T00:09:30;13.50;97.90
51007;DHT22;37034;47.886;-3.904;2022-12-29T00:11:56;13.50;97.90
51007;DHT22;37034;47.886;-3.904;2022-12-29T00:14:21;13.50;97.60
51007;DHT22;37034;47.886;-3.904;2022-12-29T00:17:06;13.50;97.60
51007;DHT22;37034;47.886;-3.904;2022-12-29T00:19:31;13.40;97.80
51007;DHT22;37034;47.886;-3.904;2022-12-29T00:22:16;13.40;97.70
51007;DHT22;37034;47.886;-3.904;2022-12-29T00:25:00;13.50;97.70
51007;DHT22;37034;47.886;-3.904;2022-12-29T00:27:44;13.40;97.70
51007;DHT22;37034;47.886;-3.904;2022-12-29T00:30:28;13.50;97.70
51007;DHT22;37034;47.886;-3.904;2022-12-29T00:33:14;13.50;97.50
51007;DHT22;37034;47.886;-3.904;2022-12-29T00:36:09;13.40;97.40
51007;DHT22;37034;47.886;-3.904;2022-12-29T00:38:37;13.40;97.60
51007;DHT22;37034;47.886;-3.904;2022-12-29T00:41:25;13.40;97.60
51007;DHT22;37034;47.886;-3.904;2022-12-29T00:44:10;13.40;97.70
51007;DHT22;37034;47.886;-3.904;2022-12-29T00:46:37;13.30;97.70
51007;DHT22;37034;47.886;-3.904;2022-12-29T00:49:04;13.30;97.70
51007;DHT22;37034;47.886;-3.904;2022-12-29T00:51:49;13.40;97.70
51007;DHT22;37034;47.886;-3.904;2022-12-29T00:54:15;13.40;97.60
51007;DHT22;37034;47.886;-3.904;2022-12-29T00:56:41;13.30;97.70
51007;DHT22;37034;47.886;-3.904;2022-12-29T00:59:09;13.40;97.60
51007;DHT22;37034;47.886;-3.904;2022-12-29T01:01:36;13.30;97.70
51007;DHT22;37034;47.886;-3.904;2022-12-29T01:04:02;13.30;97.30
51007;DHT22;37034;47.886;-3.904;2022-12-29T01:06:27;13.30;97.10
51007;DHT22;37034;47.886;-3.904;2022-12-29T01:08:53;13.20;97.40
51007;DHT22;37034;47.886;-3.904;2022-12-29T01:11:38;13.10;97.50
51007;DHT22;37034;47.886;-3.904;2022-12-29T01:14:04;13.20;97.40
51007;DHT22;37034;47.886;-3.904;2022-12-29T01:16:30;13.10;97.50
51007;DHT22;37034;47.886;-3.904;2022-12-29T01:18:56;13.10;97.50
51007;DHT22;37034;47.886;-3.904;2022-12-29T01:21:21;13.20;97.50
51007;DHT22;37034;47.886;-3.904;2022-12-29T01:23:47;13.20;97.50
51007;DHT22;37034;47.886;-3.904;2022-12-29T01:26:15;13.10;97.30
51007;DHT22;37034;47.886;-3.904;2022-12-29T01:28:41;13.10;97.40
51007;DHT22;37034;47.886;-3.904;2022-12-29T01:31:08;13.10;97.30
51007;DHT22;37034;47.886;-3.904;2022-12-29T01:33:34;13.10;97.40
51007;DHT22;37034;47.886;-3.904;2022-12-29T01:36:07;13.10;97.50
51007;DHT22;37034;47.886;-3.904;2022-12-29T01:38:35;13.10;97.40
51007;DHT22;37034;47.886;-3.904;2022-12-29T01:41:01;13.10;97.40
51007;DHT22;37034;47.886;-3.904;2022-12-29T01:46:30;13.00;97.60
51007;DHT22;37034;47.886;-3.904;2022-12-29T01:51:53;13.10;97.40
51007;DHT22;37034;47.886;-3.904;2022-12-29T01:54:26;13.00;97.40
51007;DHT22;37034;47.886;-3.904;2022-12-29T01:56:56;13.00;97.30
51007;DHT22;37034;47.886;-3.904;2022-12-29T01:59:28;13.00;97.30
51007;DHT22;37034;47.886;-3.904;2022-12-29T02:01:54;13.00;97.40
51007;DHT22;37034;47.886;-3.904;2022-12-29T02:04:23;13.00;97.30
51007;DHT22;37034;47.886;-3.904;2022-12-29T02:06:55;13.00;97.40
51007;DHT22;37034;47.886;-3.904;2022-12-29T02:09:22;13.00;97.20
51007;DHT22;37034;47.886;-3.904;2022-12-29T02:11:49;13.00;97.10
51007;DHT22;37034;47.886;-3.904;2022-12-29T02:14:15;13.00;97.30
51007;DHT22;37034;47.886;-3.904;2022-12-29T02:25:24;12.90;97.00
51007;DHT22;37034;47.886;-3.904;2022-12-29T02:49:06;13.00;96.80
51007;DHT22;37034;47.886;-3.904;2022-12-29T02:51:50;13.00;97.00
51007;DHT22;37034;47.886;-3.904;2022-12-29T02:54:19;13.00;96.90
51007;DHT22;37034;47.886;-3.904;2022-12-29T02:57:48;13.10;96.90
51007;DHT22;37034;47.886;-3.904;2022-12-29T03:00:09;13.10;96.80
51007;DHT22;37034;47.886;-3.904;2022-12-29T03:11:09;13.20;96.70
51007;DHT22;37034;47.886;-3.904;2022-12-29T03:14:16;13.20;96.60
51007;DHT22;37034;47.886;-3.904;2022-12-29T03:17:10;13.20;96.60
51007;DHT22;37034;47.886;-3.904;2022-12-29T03:19:44;13.20;96.60
51007;DHT22;37034;47.886;-3.904;2022-12-29T03:22:19;13.10;96.50
51007;DHT22;37034;47.886;-3.904;2022-12-29T03:27:38;13.10;96.50
51007;DHT22;37034;47.886;-3.904;2022-12-29T03:30:06;13.10;96.40
51007;DHT22;37034;47.886;-3.904;2022-12-29T03:32:38;13.00;96.40
51007;DHT22;37034;47.886;-3.904;2022-12-29T03:35:05;13.10;96.40
51007;DHT22;37034;47.886;-3.904;2022-12-29T03:37:38;13.00;96.50
51007;DHT22;37034;47.886;-3.904;2022-12-29T03:40:05;13.00;96.70
51007;DHT22;37034;47.886;-3.904;2022-12-29T03:42:32;13.10;96.60
51007;DHT22;37034;47.886;-3.904;2022-12-29T03:44:59;13.00;96.20
51007;DHT22;37034;47.886;-3.904;2022-12-29T03:47:25;13.00;96.80
51007;DHT22;37034;47.886;-3.904;2022-12-29T03:49:51;13.00;96.80
51007;DHT22;37034;47.886;-3.904;2022-12-29T03:52:17;13.10;96.70
51007;DHT22;37034;47.886;-3.904;2022-12-29T03:54:44;13.00;96.50
51007;DHT22;37034;47.886;-3.904;2022-12-29T03:57:10;12.90;96.60
51007;DHT22;37034;47.886;-3.904;2022-12-29T03:59:36;12.90;96.50
51007;DHT22;37034;47.886;-3.904;2022-12-29T04:02:02;13.00;96.30
51007;DHT22;37034;47.886;-3.904;2022-12-29T04:04:28;13.00;96.40
51007;DHT22;37034;47.886;-3.904;2022-12-29T04:06:53;13.00;96.30
51007;DHT22;37034;47.886;-3.904;2022-12-29T04:09:19;13.00;96.30
51007;DHT22;37034;47.886;-3.904;2022-12-29T04:11:45;13.00;96.40
51007;DHT22;37034;47.886;-3.904;2022-12-29T04:14:11;13.00;96.30
51007;DHT22;37034;47.886;-3.904;2022-12-29T04:16:36;13.00;96.30
51007;DHT22;37034;47.886;-3.904;2022-12-29T04:19:04;13.00;96.30
51007;DHT22;37034;47.886;-3.904;2022-12-29T04:21:30;13.00;96.40
51007;DHT22;37034;47.886;-3.904;2022-12-29T04:23:56;13.00;96.20
51007;DHT22;37034;47.886;-3.904;2022-12-29T04:26:21;13.00;96.20
51007;DHT22;37034;47.886;-3.904;2022-12-29T04:28:47;13.00;96.30
51007;DHT22;37034;47.886;-3.904;2022-12-29T04:31:13;13.00;96.20
51007;DHT22;37034;47.886;-3.904;2022-12-29T04:33:38;13.00;96.10
51007;DHT22;37034;47.886;-3.904;2022-12-29T04:36:04;13.00;96.00
51007;DHT22;37034;47.886;-3.904;2022-12-29T04:38:30;13.00;96.10
51007;DHT22;37034;47.886;-3.904;2022-12-29T04:40:59;13.00;96.50
51007;DHT22;37034;47.886;-3.904;2022-12-29T04:43:25;12.70;96.30
51007;DHT22;37034;47.886;-3.904;2022-12-29T04:45:51;12.60;96.60
51007;DHT22;37034;47.886;-3.904;2022-12-29T04:48:17;12.70;96.50
51007;DHT22;37034;47.886;-3.904;2022-12-29T04:50:43;12.50;96.60
51007;DHT22;37034;47.886;-3.904;2022-12-29T04:53:09;12.40;96.60
51007;DHT22;37034;47.886;-3.904;2022-12-29T04:55:34;12.50;96.50
51007;DHT22;37034;47.886;-3.904;2022-12-29T04:58:00;12.50;96.40
51007;DHT22;37034;47.886;-3.904;2022-12-29T05:00:26;12.50;96.30
51007;DHT22;37034;47.886;-3.904;2022-12-29T05:02:51;12.50;96.30
51007;DHT22;37034;47.886;-3.904;2022-12-29T05:05:17;12.40;96.40
51007;DHT22;37034;47.886;-3.904;2022-12-29T05:07:43;12.50;96.60
51007;DHT22;37034;47.886;-3.904;2022-12-29T05:10:09;12.50;96.50
51007;DHT22;37034;47.886;-3.904;2022-12-29T05:12:36;12.50;96.40
51007;DHT22;37034;47.886;-3.904;2022-12-29T05:15:02;12.60;96.30
51007;DHT22;37034;47.886;-3.904;2022-12-29T05:17:28;12.60;96.10
51007;DHT22;37034;47.886;-3.904;2022-12-29T05:19:54;12.50;96.20
51007;DHT22;37034;47.886;-3.904;2022-12-29T05:22:19;12.50;96.00
51007;DHT22;37034;47.886;-3.904;2022-12-29T05:24:45;12.40;96.00
51007;DHT22;37034;47.886;-3.904;2022-12-29T05:27:11;12.40;96.00
51007;DHT22;37034;47.886;-3.904;2022-12-29T05:29:37;12.40;96.00
51007;DHT22;37034;47.886;-3.904;2022-12-29T05:32:02;12.40;96.10
51007;DHT22;37034;47.886;-3.904;2022-12-29T05:34:28;12.30;96.00
51007;DHT22;37034;47.886;-3.904;2022-12-29T05:36:54;12.40;96.30
51007;DHT22;37034;47.886;-3.904;2022-12-29T05:39:19;12.40;96.20
51007;DHT22;37034;47.886;-3.904;2022-12-29T05:41:45;12.40;96.20
51007;DHT22;37034;47.886;-3.904;2022-12-29T05:44:11;12.40;96.30
51007;DHT22;37034;47.886;-3.904;2022-12-29T05:46:37;12.40;96.40
51007;DHT22;37034;47.886;-3.904;2022-12-29T05:49:02;12.50;96.50
51007;DHT22;37034;47.886;-3.904;2022-12-29T05:51:28;12.50;96.50
51007;DHT22;37034;47.886;-3.904;2022-12-29T05:53:54;12.50;96.60
51007;DHT22;37034;47.886;-3.904;2022-12-29T05:56:19;12.50;96.60
51007;DHT22;37034;47.886;-3.904;2022-12-29T05:58:45;12.60;96.60
51007;DHT22;37034;47.886;-3.904;2022-12-29T06:01:11;12.50;96.60
51007;DHT22;37034;47.886;-3.904;2022-12-29T06:03:37;12.50;96.90
51007;DHT22;37034;47.886;-3.904;2022-12-29T06:06:02;12.50;96.70
51007;DHT22;37034;47.886;-3.904;2022-12-29T06:08:28;12.50;96.60
51007;DHT22;37034;47.886;-3.904;2022-12-29T06:10:54;12.60;96.70
51007;DHT22;37034;47.886;-3.904;2022-12-29T06:13:19;12.60;96.60
51007;DHT22;37034;47.886;-3.904;2022-12-29T06:15:45;12.60;96.60
51007;DHT22;37034;47.886;-3.904;2022-12-29T06:18:13;12.60;96.60
51007;DHT22;37034;47.886;-3.904;2022-12-29T06:20:38;12.60;96.60
51007;DHT22;37034;47.886;-3.904;2022-12-29T06:23:04;12.60;96.50
51007;DHT22;37034;47.886;-3.904;2022-12-29T06:25:30;12.60;96.40
51007;DHT22;37034;47.886;-3.904;2022-12-29T06:27:57;12.60;96.40
51007;DHT22;37034;47.886;-3.904;2022-12-29T06:30:23;12.60;96.40
51007;DHT22;37034;47.886;-3.904;2022-12-29T06:32:49;12.50;96.30
51007;DHT22;37034;47.886;-3.904;2022-12-29T06:35:15;12.40;96.40
51007;DHT22;37034;47.886;-3.904;2022-12-29T06:37:41;12.30;96.70
51007;DHT22;37034;47.886;-3.904;2022-12-29T06:40:07;12.40;96.70
51007;DHT22;37034;47.886;-3.904;2022-12-29T06:42:33;12.40;96.70
51007;DHT22;37034;47.886;-3.904;2022-12-29T06:44:58;12.50;96.50
51007;DHT22;37034;47.886;-3.904;2022-12-29T06:47:26;12.50;96.50
51007;DHT22;37034;47.886;-3.904;2022-12-29T06:49:51;12.60;96.40
51007;DHT22;37034;47.886;-3.904;2022-12-29T06:52:17;12.60;96.30
51007;DHT22;37034;47.886;-3.904;2022-12-29T06:54:43;12.60;96.20
51007;DHT22;37034;47.886;-3.904;2022-12-29T06:57:09;12.60;96.10
51007;DHT22;37034;47.886;-3.904;2022-12-29T06:59:34;12.60;96.10
51007;DHT22;37034;47.886;-3.904;2022-12-29T07:02:00;12.50;96.00
51007;DHT22;37034;47.886;-3.904;2022-12-29T07:04:27;12.50;96.10
51007;DHT22;37034;47.886;-3.904;2022-12-29T07:06:53;12.50;96.00
51007;DHT22;37034;47.886;-3.904;2022-12-29T07:09:19;12.50;95.90
51007;DHT22;37034;47.886;-3.904;2022-12-29T07:11:46;12.50;95.90
51007;DHT22;37034;47.886;-3.904;2022-12-29T07:14:12;12.40;96.00
51007;DHT22;37034;47.886;-3.904;2022-12-29T07:16:38;12.40;96.00
51007;DHT22;37034;47.886;-3.904;2022-12-29T07:19:04;12.40;96.00
51007;DHT22;37034;47.886;-3.904;2022-12-29T07:21:30;12.30;96.00
51007;DHT22;37034;47.886;-3.904;2022-12-29T07:23:55;12.30;96.10
51007;DHT22;37034;47.886;-3.904;2022-12-29T07:26:21;12.30;96.10
51007;DHT22;37034;47.886;-3.904;2022-12-29T07:28:47;12.30;96.20
51007;DHT22;37034;47.886;-3.904;2022-12-29T07:31:18;12.30;96.30
51007;DHT22;37034;47.886;-3.904;2022-12-29T07:33:44;12.30;96.30
51007;DHT22;37034;47.886;-3.904;2022-12-29T07:36:10;12.30;96.40
51007;DHT22;37034;47.886;-3.904;2022-12-29T07:38:36;12.30;96.40
51007;DHT22;37034;47.886;-3.904;2022-12-29T07:41:02;12.40;96.40
51007;DHT22;37034;47.886;-3.904;2022-12-29T07:43:28;12.40;96.30
51007;DHT22;37034;47.886;-3.904;2022-12-29T07:45:53;12.40;96.30
51007;DHT22;37034;47.886;-3.904;2022-12-29T07:48:19;12.40;96.30
51007;DHT22;37034;47.886;-3.904;2022-12-29T07:50:45;12.40;96.20
51007;DHT22;37034;47.886;-3.904;2022-12-29T07:53:10;12.40;96.10
51007;DHT22;37034;47.886;-3.904;2022-12-29T07:55:36;12.30;96.00
51007;DHT22;37034;47.886;-3.904;2022-12-29T07:58:02;12.20;95.80
51007;DHT22;37034;47.886;-3.904;2022-12-29T08:00:28;12.20;95.90
51007;DHT22;37034;47.886;-3.904;2022-12-29T08:02:53;12.10;96.00
51007;DHT22;37034;47.886;-3.904;2022-12-29T08:05:20;12.10;95.90
51007;DHT22;37034;47.886;-3.904;2022-12-29T08:07:46;12.20;95.90
51007;DHT22;37034;47.886;-3.904;2022-12-29T08:10:12;12.10;95.70
51007;DHT22;37034;47.886;-3.904;2022-12-29T08:12:39;12.20;95.60
51007;DHT22;37034;47.886;-3.904;2022-12-29T08:15:06;12.20;95.60
51007;DHT22;37034;47.886;-3.904;2022-12-29T08:17:32;12.20;95.50
51007;DHT22;37034;47.886;-3.904;2022-12-29T08:19:59;12.10;95.50
51007;DHT22;37034;47.886;-3.904;2022-12-29T08:22:25;12.10;95.50
51007;DHT22;37034;47.886;-3.904;2022-12-29T08:24:51;12.10;95.40
51007;DHT22;37034;47.886;-3.904;2022-12-29T08:27:16;12.10;95.50
51007;DHT22;37034;47.886;-3.904;2022-12-29T08:29:43;12.10;95.40
51007;DHT22;37034;47.886;-3.904;2022-12-29T08:32:08;12.10;95.20
51007;DHT22;37034;47.886;-3.904;2022-12-29T08:34:34;12.10;95.10
51007;DHT22;37034;47.886;-3.904;2022-12-29T08:37:00;12.10;95.00
51007;DHT22;37034;47.886;-3.904;2022-12-29T08:39:26;12.10;95.20
51007;DHT22;37034;47.886;-3.904;2022-12-29T08:41:52;12.10;95.10
51007;DHT22;37034;47.886;-3.904;2022-12-29T08:44:18;12.10;95.30
51007;DHT22;37034;47.886;-3.904;2022-12-29T08:46:43;12.10;95.10
51007;DHT22;37034;47.886;-3.904;2022-12-29T08:49:09;12.10;95.20
51007;DHT22;37034;47.886;-3.904;2022-12-29T08:51:35;12.10;95.30
51007;DHT22;37034;47.886;-3.904;2022-12-29T08:54:00;12.10;95.40
51007;DHT22;37034;47.886;-3.904;2022-12-29T08:56:27;12.20;95.30
51007;DHT22;37034;47.886;-3.904;2022-12-29T08:58:53;12.20;95.40
51007;DHT22;37034;47.886;-3.904;2022-12-29T09:01:19;12.30;95.60
51007;DHT22;37034;47.886;-3.904;2022-12-29T09:03:45;12.30;95.40
51007;DHT22;37034;47.886;-3.904;2022-12-29T09:06:11;12.40;95.50
51007;DHT22;37034;47.886;-3.904;2022-12-29T09:08:37;12.40;95.50
51007;DHT22;37034;47.886;-3.904;2022-12-29T09:11:23;12.50;95.50
51007;DHT22;37034;47.886;-3.904;2022-12-29T09:13:49;12.50;95.40
51007;DHT22;37034;47.886;-3.904;2022-12-29T09:16:16;12.60;95.30
51007;DHT22;37034;47.886;-3.904;2022-12-29T09:18:42;12.70;95.30
51007;DHT22;37034;47.886;-3.904;2022-12-29T09:21:10;12.70;95.30
51007;DHT22;37034;47.886;-3.904;2022-12-29T09:23:36;12.70;95.30
51007;DHT22;37034;47.886;-3.904;2022-12-29T09:26:01;12.70;95.10
51007;DHT22;37034;47.886;-3.904;2022-12-29T09:28:27;12.80;95.00
51007;DHT22;37034;47.886;-3.904;2022-12-29T09:30:54;12.80;95.30
51007;DHT22;37034;47.886;-3.904;2022-12-29T09:33:20;12.90;95.20
51007;DHT22;37034;47.886;-3.904;2022-12-29T09:35:51;12.90;95.30
51007;DHT22;37034;47.886;-3.904;2022-12-29T09:38:18;13.00;95.30
51007;DHT22;37034;47.886;-3.904;2022-12-29T09:40:49;13.00;95.10
51007;DHT22;37034;47.886;-3.904;2022-12-29T09:43:31;13.10;95.20
51007;DHT22;37034;47.886;-3.904;2022-12-29T09:46:28;13.10;95.20
51007;DHT22;37034;47.886;-3.904;2022-12-29T09:49:04;13.20;95.20
51007;DHT22;37034;47.886;-3.904;2022-12-29T09:51:32;13.30;95.50
51007;DHT22;37034;47.886;-3.904;2022-12-29T09:54:14;13.40;95.70
51007;DHT22;37034;47.886;-3.904;2022-12-29T09:56:44;13.50;95.50
51007;DHT22;37034;47.886;-3.904;2022-12-29T09:59:17;13.60;95.30
51007;DHT22;37034;47.886;-3.904;2022-12-29T10:04:18;13.50;94.70
51007;DHT22;37034;47.886;-3.904;2022-12-29T10:06:56;13.50;94.60
51007;DHT22;37034;47.886;-3.904;2022-12-29T10:09:48;13.40;94.90
51007;DHT22;37034;47.886;-3.904;2022-12-29T10:23:32;13.30;94.70
51007;DHT22;37034;47.886;-3.904;2022-12-29T10:25:59;13.30;94.60
51007;DHT22;37034;47.886;-3.904;2022-12-29T10:28:56;13.30;94.80
51007;DHT22;37034;47.886;-3.904;2022-12-29T10:32:09;13.40;95.00
51007;DHT22;37034;47.886;-3.904;2022-12-29T10:34:20;13.50;95.10
51007;DHT22;37034;47.886;-3.904;2022-12-29T10:36:47;13.60;95.00
51007;DHT22;37034;47.886;-3.904;2022-12-29T10:41:53;13.70;94.90
51007;DHT22;37034;47.886;-3.904;2022-12-29T10:44:21;13.80;94.70
51007;DHT22;37034;47.886;-3.904;2022-12-29T10:46:58;13.80;94.40
51007;DHT22;37034;47.886;-3.904;2022-12-29T10:49:28;13.70;94.60
51007;DHT22;37034;47.886;-3.904;2022-12-29T10:51:58;13.70;94.60
51007;DHT22;37034;47.886;-3.904;2022-12-29T10:57:30;13.70;94.50
51007;DHT22;37034;47.886;-3.904;2022-12-29T10:59:58;13.80;95.00
51007;DHT22;37034;47.886;-3.904;2022-12-29T11:08:03;14.00;95.00
51007;DHT22;37034;47.886;-3.904;2022-12-29T11:10:38;14.10;94.90
51007;DHT22;37034;47.886;-3.904;2022-12-29T11:13:27;14.10;94.90
51007;DHT22;37034;47.886;-3.904;2022-12-29T11:15:53;14.10;94.50
51007;DHT22;37034;47.886;-3.904;2022-12-29T11:20:56;14.20;94.70
51007;DHT22;37034;47.886;-3.904;2022-12-29T11:23:57;14.30;94.80
51007;DHT22;37034;47.886;-3.904;2022-12-29T11:26:24;14.40;94.70
51007;DHT22;37034;47.886;-3.904;2022-12-29T11:31:41;14.70;94.70
51007;DHT22;37034;47.886;-3.904;2022-12-29T11:34:08;14.70;94.00
51007;DHT22;37034;47.886;-3.904;2022-12-29T11:36:34;14.50;94.10
51007;DHT22;37034;47.886;-3.904;2022-12-29T11:39:01;14.60;93.90
51007;DHT22;37034;47.886;-3.904;2022-12-29T11:41:31;14.60;93.80
51007;DHT22;37034;47.886;-3.904;2022-12-29T11:44:02;14.50;94.00
51007;DHT22;37034;47.886;-3.904;2022-12-29T11:46:33;14.40;93.90
51007;DHT22;37034;47.886;-3.904;2022-12-29T11:48:59;14.40;93.50
51007;DHT22;37034;47.886;-3.904;2022-12-29T11:51:34;14.40;93.80
51007;DHT22;37034;47.886;-3.904;2022-12-29T11:54:03;14.50;93.90
51007;DHT22;37034;47.886;-3.904;2022-12-29T11:56:39;14.50;93.90
51007;DHT22;37034;47.886;-3.904;2022-12-29T12:01:57;14.60;94.20
51007;DHT22;37034;47.886;-3.904;2022-12-29T12:04:26;14.60;94.00
51007;DHT22;37034;47.886;-3.904;2022-12-29T12:09:27;14.50;93.60
51007;DHT22;37034;47.886;-3.904;2022-12-29T12:11:55;14.40;93.50
51007;DHT22;37034;47.886;-3.904;2022-12-29T12:14:40;14.40;93.50
51007;DHT22;37034;47.886;-3.904;2022-12-29T12:17:16;14.30;93.60
51007;DHT22;37034;47.886;-3.904;2022-12-29T12:19:49;14.20;93.50
51007;DHT22;37034;47.886;-3.904;2022-12-29T12:24:58;14.00;93.40
51007;DHT22;37034;47.886;-3.904;2022-12-29T12:27:48;14.00;93.30
51007;DHT22;37034;47.886;-3.904;2022-12-29T12:30:18;14.00;93.50
51007;DHT22;37034;47.886;-3.904;2022-12-29T12:33:03;14.00;93.50
51007;DHT22;37034;47.886;-3.904;2022-12-29T12:43:43;13.90;94.10
51007;DHT22;37034;47.886;-3.904;2022-12-29T12:49:16;13.80;94.40
51007;DHT22;37034;47.886;-3.904;2022-12-29T12:52:09;13.90;94.40
51007;DHT22;37034;47.886;-3.904;2022-12-29T13:00:18;14.10;95.40
51007;DHT22;37034;47.886;-3.904;2022-12-29T13:03:00;14.20;95.70
51007;DHT22;37034;47.886;-3.904;2022-12-29T13:05:47;14.30;95.70
51007;DHT22;37034;47.886;-3.904;2022-12-29T13:13:52;14.20;94.90
51007;DHT22;37034;47.886;-3.904;2022-12-29T13:19:47;14.10;95.10
51007;DHT22;37034;47.886;-3.904;2022-12-29T13:28:05;13.80;94.80
51007;DHT22;37034;47.886;-3.904;2022-12-29T13:30:42;13.60;94.80
51007;DHT22;37034;47.886;-3.904;2022-12-29T13:33:24;13.60;95.20
51007;DHT22;37034;47.886;-3.904;2022-12-29T13:35:59;13.70;95.30
51007;DHT22;37034;47.886;-3.904;2022-12-29T13:38:29;13.80;95.10
51007;DHT22;37034;47.886;-3.904;2022-12-29T13:41:02;13.80;95.00
51007;DHT22;37034;47.886;-3.904;2022-12-29T13:43:31;13.80;95.00
51007;DHT22;37034;47.886;-3.904;2022-12-29T13:46:02;13.80;94.90
51007;DHT22;37034;47.886;-3.904;2022-12-29T13:48:38;13.90;95.10
51007;DHT22;37034;47.886;-3.904;2022-12-29T13:51:05;13.90;95.00
51007;DHT22;37034;47.886;-3.904;2022-12-29T14:02:01;13.80;95.10
51007;DHT22;37034;47.886;-3.904;2022-12-29T14:04:30;13.90;95.20
51007;DHT22;37034;47.886;-3.904;2022-12-29T14:07:18;13.80;95.00
51007;DHT22;37034;47.886;-3.904;2022-12-29T14:09:50;13.80;95.60
51007;DHT22;37034;47.886;-3.904;2022-12-29T14:12:38;13.90;95.30
51007;DHT22;37034;47.886;-3.904;2022-12-29T14:17:35;13.90;95.20
51007;DHT22;37034;47.886;-3.904;2022-12-29T14:20:01;14.00;95.10
51007;DHT22;37034;47.886;-3.904;2022-12-29T14:22:30;14.00;95.20
51007;DHT22;37034;47.886;-3.904;2022-12-29T14:24:59;14.00;95.30
51007;DHT22;37034;47.886;-3.904;2022-12-29T14:29:53;14.00;94.80
51007;DHT22;37034;47.886;-3.904;2022-12-29T14:34:55;13.80;94.70
51007;DHT22;37034;47.886;-3.904;2022-12-29T14:42:46;13.70;94.50
51007;DHT22;37034;47.886;-3.904;2022-12-29T14:47:40;13.70;94.90
51007;DHT22;37034;47.886;-3.904;2022-12-29T14:50:18;13.70;94.80
51007;DHT22;37034;47.886;-3.904;2022-12-29T14:52:54;13.70;94.80
51007;DHT22;37034;47.886;-3.904;2022-12-29T14:55:45;13.60;94.90
51007;DHT22;37034;47.886;-3.904;2022-12-29T14:58:21;13.70;95.00
51007;DHT22;37034;47.886;-3.904;2022-12-29T15:00:48;13.80;95.00
51007;DHT22;37034;47.886;-3.904;2022-12-29T15:03:30;13.80;94.80
51007;DHT22;37034;47.886;-3.904;2022-12-29T15:06:07;13.90;94.80
51007;DHT22;37034;47.886;-3.904;2022-12-29T15:08:50;13.90;95.10
51007;DHT22;37034;47.886;-3.904;2022-12-29T15:11:21;13.90;94.70
51007;DHT22;37034;47.886;-3.904;2022-12-29T15:13:48;13.90;94.70
51007;DHT22;37034;47.886;-3.904;2022-12-29T15:18:51;14.00;94.80
51007;DHT22;37034;47.886;-3.904;2022-12-29T15:21:24;14.10;94.80
51007;DHT22;37034;47.886;-3.904;2022-12-29T15:23:50;14.00;94.50
51007;DHT22;37034;47.886;-3.904;2022-12-29T15:26:16;14.00;94.40
51007;DHT22;37034;47.886;-3.904;2022-12-29T15:28:52;13.80;94.00
51007;DHT22;37034;47.886;-3.904;2022-12-29T15:31:23;13.80;94.60
51007;DHT22;37034;47.886;-3.904;2022-12-29T15:33:53;13.70;94.10
51007;DHT22;37034;47.886;-3.904;2022-12-29T15:36:25;13.60;93.90
51007;DHT22;37034;47.886;-3.904;2022-12-29T15:38:51;13.50;94.00
51007;DHT22;37034;47.886;-3.904;2022-12-29T15:41:32;13.40;94.20
51007;DHT22;37034;47.886;-3.904;2022-12-29T15:44:36;13.30;94.00
51007;DHT22;37034;47.886;-3.904;2022-12-29T15:47:16;13.30;93.90
51007;DHT22;37034;47.886;-3.904;2022-12-29T15:49:45;13.30;94.00
51007;DHT22;37034;47.886;-3.904;2022-12-29T15:52:18;13.30;94.20
51007;DHT22;37034;47.886;-3.904;2022-12-29T15:54:45;13.30;94.20
51007;DHT22;37034;47.886;-3.904;2022-12-29T15:57:25;13.30;94.20
51007;DHT22;37034;47.886;-3.904;2022-12-29T15:59:52;13.30;94.20
51007;DHT22;37034;47.886;-3.904;2022-12-29T16:02:23;13.30;94.10
51007;DHT22;37034;47.886;-3.904;2022-12-29T16:04:52;13.30;94.20
51007;DHT22;37034;47.886;-3.904;2022-12-29T16:07:32;13.20;94.10
51007;DHT22;37034;47.886;-3.904;2022-12-29T16:10:00;13.20;94.00
51007;DHT22;37034;47.886;-3.904;2022-12-29T16:12:36;13.10;94.10
51007;DHT22;37034;47.886;-3.904;2022-12-29T16:15:05;13.20;94.10
51007;DHT22;37034;47.886;-3.904;2022-12-29T16:17:45;13.10;94.00
51007;DHT22;37034;47.886;-3.904;2022-12-29T16:20:21;13.10;94.10
51007;DHT22;37034;47.886;-3.904;2022-12-29T16:23:21;13.00;94.00
51007;DHT22;37034;47.886;-3.904;2022-12-29T16:25:48;13.00;93.90
51007;DHT22;37034;47.886;-3.904;2022-12-29T16:28:21;13.00;93.80
51007;DHT22;37034;47.886;-3.904;2022-12-29T16:30:57;12.90;93.90
51007;DHT22;37034;47.886;-3.904;2022-12-29T16:33:45;12.80;94.00
51007;DHT22;37034;47.886;-3.904;2022-12-29T16:39:32;12.70;93.90
51007;DHT22;37034;47.886;-3.904;2022-12-29T16:41:59;12.60;93.80
51007;DHT22;37034;47.886;-3.904;2022-12-29T16:44:26;12.50;93.80
51007;DHT22;37034;47.886;-3.904;2022-12-29T16:49:24;12.40;93.70
51007;DHT22;37034;47.886;-3.904;2022-12-29T16:51:54;12.30;93.70
51007;DHT22;37034;47.886;-3.904;2022-12-29T16:54:36;12.20;93.70
51007;DHT22;37034;47.886;-3.904;2022-12-29T16:57:04;12.20;93.80
51007;DHT22;37034;47.886;-3.904;2022-12-29T16:59:40;12.10;93.90
51007;DHT22;37034;47.886;-3.904;2022-12-29T17:02:16;12.10;94.00
51007;DHT22;37034;47.886;-3.904;2022-12-29T17:04:43;12.10;94.00
51007;DHT22;37034;47.886;-3.904;2022-12-29T17:07:17;12.10;93.90
51007;DHT22;37034;47.886;-3.904;2022-12-29T17:09:43;12.00;94.00
51007;DHT22;37034;47.886;-3.904;2022-12-29T17:12:18;12.00;93.90
51007;DHT22;37034;47.886;-3.904;2022-12-29T17:14:56;11.90;94.00
51007;DHT22;37034;47.886;-3.904;2022-12-29T17:17:41;11.90;93.90
51007;DHT22;37034;47.886;-3.904;2022-12-29T17:20:25;11.90;93.80
51007;DHT22;37034;47.886;-3.904;2022-12-29T17:22:54;11.80;93.80
51007;DHT22;37034;47.886;-3.904;2022-12-29T17:25:32;11.70;93.80
51007;DHT22;37034;47.886;-3.904;2022-12-29T17:28:19;11.70;94.00
51007;DHT22;37034;47.886;-3.904;2022-12-29T17:30:46;11.60;93.90
51007;DHT22;37034;47.886;-3.904;2022-12-29T17:33:14;11.60;93.80
51007;DHT22;37034;47.886;-3.904;2022-12-29T17:35:40;11.50;94.00
51007;DHT22;37034;47.886;-3.904;2022-12-29T17:38:27;11.50;94.10
51007;DHT22;37034;47.886;-3.904;2022-12-29T17:40:53;11.50;94.20
51007;DHT22;37034;47.886;-3.904;2022-12-29T17:43:18;11.50;94.20
51007;DHT22;37034;47.886;-3.904;2022-12-29T17:45:48;11.50;94.20
51007;DHT22;37034;47.886;-3.904;2022-12-29T17:49:02;11.40;94.20
51007;DHT22;37034;47.886;-3.904;2022-12-29T17:51:11;11.50;94.20
51007;DHT22;37034;47.886;-3.904;2022-12-29T17:53:37;11.40;94.20
51007;DHT22;37034;47.886;-3.904;2022-12-29T17:56:02;11.40;94.20
51007;DHT22;37034;47.886;-3.904;2022-12-29T17:58:29;11.40;94.20
51007;DHT22;37034;47.886;-3.904;2022-12-29T18:00:58;11.40;94.10
51007;DHT22;37034;47.886;-3.904;2022-12-29T18:03:30;11.40;94.20
51007;DHT22;37034;47.886;-3.904;2022-12-29T18:05:57;11.30;93.90